createdAt,value
2022-09-20T00:01:54.668Z,100485.44
2022-09-20T00:06:58.786Z,100481.13
2022-09-20T00:12:02.078Z,100486.13
2022-09-20T00:17:04.918Z,100494.97
2022-09-20T00:22:09.066Z,100489.72
2022-09-20T00:27:11.877Z,100491.53
2022-09-20T00:32:14.794Z,100486.41
2022-09-20T00:37:19.065Z,100491.91
2022-09-20T00:42:27.909Z,100495.56
2022-09-20T00:47:35.368Z,100500.22
2022-09-20T00:52:39.514Z,100501.56
2022-09-20T00:57:42.362Z,100496.31
2022-09-20T01:02:49.129Z,100507.31
2022-09-20T01:07:53.321Z,100511.47
2022-09-20T01:12:56.049Z,100502.28
2022-09-20T01:17:59.387Z,100518.16
2022-09-20T01:23:30.346Z,100512.19
2022-09-20T01:28:34.439Z,100513.50
2022-09-20T01:33:39.770Z,100509.50
2022-09-20T01:38:44.402Z,100507.00
2022-09-20T01:43:51.920Z,100517.75
2022-09-20T01:48:56.308Z,100515.31
2022-09-20T01:54:25.317Z,100515.44
2022-09-20T01:59:46.381Z,100520.94
2022-09-20T02:05:04.573Z,100516.19
2022-09-20T02:10:15.097Z,100523.84
2022-09-20T02:15:36.385Z,100526.41
2022-09-20T02:20:40.992Z,100531.19
2022-09-20T02:25:52.925Z,100529.56
2022-09-20T02:31:03.721Z,100527.09
2022-09-20T02:36:14.889Z,100532.81
2022-09-20T02:41:49.151Z,100529.28
2022-09-20T02:46:55.574Z,100536.59
2022-09-20T02:51:59.171Z,100539.63
2022-09-20T02:57:04.659Z,100532.66
2022-09-20T03:02:12.021Z,100541.47
2022-09-20T03:07:20.033Z,100538.91
2022-09-20T03:12:28.656Z,100540.72
2022-09-20T03:17:36.681Z,100550.50
2022-09-20T03:22:44.805Z,100555.13
2022-09-20T03:27:51.265Z,100557.94
2022-09-20T03:33:00.779Z,100554.75
2022-09-20T03:38:17.097Z,100552.31
2022-09-20T03:43:25.879Z,100553.53
2022-09-20T03:49:01.053Z,100553.75
2022-09-20T03:54:34.299Z,100548.25
2022-09-20T03:59:44.933Z,100543.88
2022-09-20T04:04:50.908Z,100544.84
2022-09-20T04:10:08.844Z,100558.03
2022-09-20T04:15:20.830Z,100559.38
2022-09-20T04:20:29.844Z,100561.19
2022-09-20T04:25:36.164Z,100563.88
2022-09-20T04:30:43.850Z,100569.25
2022-09-20T04:36:08.726Z,100575.72
2022-09-20T04:41:49.818Z,100574.72
2022-09-20T04:47:09.299Z,100578.41
2022-09-20T04:52:45.073Z,100579.34
2022-09-20T04:58:09.131Z,100584.84
2022-09-20T05:03:40.214Z,100589.34
2022-09-20T05:09:33.485Z,100594.84
2022-09-20T05:14:45.075Z,100604.94
2022-09-20T05:20:01.443Z,100613.22
2022-09-20T05:25:29.677Z,100618.50
2022-09-20T05:30:35.074Z,100616.66
2022-09-20T05:35:40.792Z,100615.28
2022-09-20T05:40:58.743Z,100623.34
2022-09-20T05:46:06.617Z,100627.84
2022-09-20T05:51:12.138Z,100630.41
2022-09-20T05:56:19.803Z,100628.69
2022-09-20T06:01:25.975Z,100628.81
2022-09-20T06:06:32.702Z,100638.56
2022-09-20T06:11:58.388Z,100643.09
2022-09-20T06:17:05.386Z,100649.44
2022-09-20T06:22:13.971Z,100654.81
2022-09-20T06:27:20.052Z,100653.94
2022-09-20T06:32:22.783Z,100656.63
2022-09-20T06:37:58.357Z,100652.13
2022-09-20T06:43:03.984Z,100655.53
2022-09-20T06:48:06.771Z,100663.59
2022-09-20T06:53:10.422Z,100660.78
2022-09-20T06:58:14.418Z,100661.75
2022-09-20T07:03:19.501Z,100672.19
2022-09-20T07:08:22.211Z,100675.72
2022-09-20T07:13:27.563Z,100681.91
2022-09-20T07:18:31.093Z,100686.75
2022-09-20T07:23:33.749Z,100690.69
2022-09-20T07:28:37.748Z,100702.31
2022-09-20T07:33:40.420Z,100707.91
2022-09-20T07:38:43.246Z,100712.69
2022-09-20T07:43:47.384Z,100712.63
2022-09-20T07:48:50.116Z,100720.81
2022-09-20T07:53:55.323Z,100726.84
2022-09-20T07:58:59.351Z,100727.69
2022-09-20T08:04:02.428Z,100731.06
2022-09-20T08:09:08.940Z,100736.66
2022-09-20T08:14:16.068Z,100744.50
2022-09-20T08:19:19.530Z,100741.00
2022-09-20T08:24:22.295Z,100761.06
2022-09-20T08:29:26.365Z,100759.94
2022-09-20T08:34:29.269Z,100759.56
2022-09-20T08:44:58.528Z,100754.81
2022-09-20T08:50:09.014Z,100759.53
2022-09-20T08:55:17.086Z,100755.94
2022-09-20T09:00:23.009Z,100757.94
2022-09-20T09:05:32.405Z,100767.09
2022-09-20T09:10:42.676Z,100763.06
2022-09-20T09:15:46.839Z,100770.59
2022-09-20T09:20:49.429Z,100767.63
2022-09-20T09:25:52.203Z,100777.28
2022-09-20T09:30:56.375Z,100776.19
2022-09-20T09:36:00.203Z,100782.41
2022-09-20T09:41:03.742Z,100774.72
2022-09-20T09:46:23.136Z,100780.66
2022-09-20T09:51:26.481Z,100783.97
2022-09-20T09:56:47.156Z,100782.59
2022-09-20T10:01:55.506Z,100771.53
2022-09-20T10:07:00.944Z,100779.19
2022-09-20T10:12:11.851Z,100774.03
2022-09-20T10:17:24.694Z,100781.75
2022-09-20T10:22:31.127Z,100775.69
2022-09-20T10:27:40.810Z,100771.63
2022-09-20T10:32:52.068Z,100768.84
2022-09-20T10:38:03.070Z,100767.97
2022-09-20T10:43:16.238Z,100779.47
2022-09-20T10:48:23.044Z,100781.28
2022-09-20T10:53:29.809Z,100782.88
2022-09-20T10:58:43.029Z,100780.19
2022-09-20T11:04:08.987Z,100785.47
2022-09-20T11:09:14.344Z,100777.72
2022-09-20T11:14:19.330Z,100776.97
2022-09-20T11:19:26.752Z,100778.31
2022-09-20T11:24:31.911Z,100781.97
2022-09-20T11:29:36.915Z,100775.22
2022-09-20T11:34:43.923Z,100775.31
2022-09-20T11:39:48.714Z,100775.75
2022-09-20T11:44:51.422Z,100780.88
2022-09-20T11:50:13.051Z,100766.47
2022-09-20T11:55:30.268Z,100768.44
2022-09-20T12:00:35.232Z,100784.88
2022-09-20T12:05:41.567Z,100778.75
2022-09-20T12:10:44.677Z,100782.13
2022-09-20T12:15:47.788Z,100773.59
2022-09-20T12:21:00.157Z,100774.81
2022-09-20T12:26:03.193Z,100789.56
2022-09-20T12:31:38.458Z,100777.41
2022-09-20T12:36:43.438Z,100778.69
2022-09-20T12:41:48.307Z,100769.09
2022-09-20T12:46:52.845Z,100763.91
2022-09-20T12:52:14.205Z,100751.47
2022-09-20T12:57:18.923Z,100751.97
2022-09-20T13:02:43.354Z,100742.91
2022-09-20T13:07:54.114Z,100747.31
2022-09-20T13:13:00.864Z,100746.19
2022-09-20T13:18:03.515Z,100742.91
2022-09-20T13:23:07.611Z,100740.84
2022-09-20T13:28:11.226Z,100745.13
2022-09-20T13:33:24.600Z,100746.38
2022-09-20T13:38:30.040Z,100750.44
2022-09-20T13:43:34.048Z,100747.50
2022-09-20T13:48:36.765Z,100751.78
2022-09-20T13:53:42.048Z,100756.69
2022-09-20T13:58:45.174Z,100766.22
2022-09-20T14:03:48.030Z,100758.38
2022-09-20T14:08:53.396Z,100758.25
2022-09-20T14:13:56.722Z,100760.09
2022-09-20T14:18:59.641Z,100759.13
2022-09-20T14:24:06.468Z,100766.22
2022-09-20T14:29:31.484Z,100768.31
2022-09-20T14:34:36.737Z,100767.97
2022-09-20T14:39:47.407Z,100780.22
2022-09-20T14:44:53.583Z,100778.88
2022-09-20T14:49:58.047Z,100786.94
2022-09-20T14:55:03.417Z,100782.03
2022-09-20T15:00:06.786Z,100783.63
2022-09-20T15:05:18.379Z,100791.94
2022-09-20T15:10:22.480Z,100791.72
2022-09-20T15:15:25.350Z,100785.81
2022-09-20T15:20:28.580Z,100790.22
2022-09-20T15:25:32.762Z,100792.69
2022-09-20T15:30:37.225Z,100790.09
2022-09-20T15:35:39.870Z,100791.47
2022-09-20T15:40:44.274Z,100788.41
2022-09-20T15:51:21.333Z,100802.72
2022-09-20T15:56:27.291Z,100797.22
2022-09-20T16:01:31.671Z,100816.56
2022-09-20T16:06:34.433Z,100815.94
2022-09-20T16:11:38.817Z,100814.22
2022-09-20T16:16:41.717Z,100822.81
2022-09-20T16:21:46.890Z,100825.88
2022-09-20T16:26:50.952Z,100820.72
2022-09-20T16:31:54.048Z,100840.56
2022-09-20T16:36:58.558Z,100846.81
2022-09-20T16:42:04.367Z,100850.84
2022-09-20T16:47:08.789Z,100851.22
2022-09-20T16:52:11.925Z,100860.91
2022-09-20T16:57:16.109Z,100865.44
2022-09-20T17:02:18.828Z,100863.59
2022-09-20T17:07:24.276Z,100886.22
2022-09-20T17:12:32.711Z,100886.84
2022-09-20T17:17:35.319Z,100891.75
2022-09-20T17:22:38.126Z,100898.69
2022-09-20T17:27:42.126Z,100905.59
2022-09-20T17:32:50.414Z,100895.59
2022-09-20T17:37:53.033Z,100914.84
2022-09-20T17:42:57.930Z,100920.97
2022-09-20T17:48:00.719Z,100926.75
2022-09-20T17:53:03.340Z,100938.78
2022-09-20T17:58:07.732Z,100955.00
2022-09-20T18:03:10.480Z,100954.41
2022-09-20T18:08:13.282Z,100959.47
2022-09-20T18:13:17.956Z,100958.94
2022-09-20T18:18:20.804Z,100969.81
2022-09-20T18:23:23.465Z,100968.72
2022-09-20T18:28:27.399Z,100972.91
2022-09-20T18:33:30.940Z,100979.25
2022-09-20T18:38:33.737Z,100991.91
2022-09-20T18:43:37.785Z,100994.06
2022-09-20T18:48:40.610Z,100998.88
2022-09-20T18:53:43.293Z,101000.59
2022-09-20T18:58:47.734Z,101011.69
2022-09-20T19:03:55.065Z,101008.41
2022-09-20T19:09:00.401Z,101017.59
2022-09-20T19:14:07.741Z,101018.09
2022-09-20T19:19:19.477Z,101021.63
2022-09-20T19:24:26.426Z,101026.41
2022-09-20T19:29:31.260Z,101040.28
2022-09-20T19:34:34.520Z,101039.63
2022-09-20T19:39:48.850Z,101043.09
2022-09-20T19:44:56.796Z,101044.94
2022-09-20T19:50:02.690Z,101043.31
2022-09-20T19:55:06.433Z,101049.06
2022-09-20T20:00:14.552Z,101047.63
2022-09-20T20:05:18.627Z,101051.25
2022-09-20T20:10:23.833Z,101047.38
2022-09-20T20:15:37.592Z,101051.06
2022-09-20T20:20:41.931Z,101056.78
2022-09-20T20:25:47.986Z,101065.78
2022-09-20T20:30:52.097Z,101076.63
2022-09-20T20:35:56.290Z,101078.72
2022-09-20T20:41:00.907Z,101084.00
2022-09-20T20:46:05.384Z,101078.59
2022-09-20T20:51:09.445Z,101083.50
2022-09-20T20:56:14.468Z,101084.44
2022-09-20T21:01:19.539Z,101086.19
2022-09-20T21:06:24.271Z,101088.78
2022-09-20T21:11:27.791Z,101098.81
2022-09-20T21:16:32.432Z,101103.66
2022-09-20T21:21:36.115Z,101109.28
2022-09-20T21:26:38.912Z,101109.50
2022-09-20T21:31:44.618Z,101120.28
2022-09-20T21:36:47.253Z,101120.63
2022-09-20T21:41:49.854Z,101110.16
2022-09-20T21:46:54.161Z,101121.06
2022-09-20T21:51:56.769Z,101126.69
2022-09-20T21:56:59.524Z,101129.59
2022-09-20T22:02:03.475Z,101125.09
2022-09-20T22:07:06.071Z,101123.69
2022-09-20T22:12:08.840Z,101122.41
2022-09-20T22:17:12.854Z,101136.34
2022-09-20T22:22:15.442Z,101140.44
2022-09-20T22:27:18.065Z,101138.50
2022-09-20T22:32:22.022Z,101147.53
2022-09-20T22:37:24.640Z,101152.06
2022-09-20T22:42:27.269Z,101158.75
2022-09-20T22:47:31.248Z,101155.09
2022-09-20T22:52:33.846Z,101161.56
2022-09-20T22:57:37.338Z,101156.06
2022-09-20T23:02:41.312Z,101163.28
2022-09-20T23:07:43.923Z,101173.19
2022-09-20T23:12:50.413Z,101167.06
2022-09-20T23:17:54.448Z,101167.91
2022-09-20T23:22:57.025Z,101173.66
2022-09-20T23:27:59.659Z,101171.16
2022-09-20T23:33:03.597Z,101169.66
2022-09-20T23:38:06.213Z,101171.59
2022-09-20T23:43:08.818Z,101173.75
2022-09-20T23:48:12.934Z,101167.94
2022-09-20T23:53:15.580Z,101171.72
2022-09-20T23:58:18.210Z,101171.09
